sensor_id;sensor_type;location;lat;lon;timestamp;P1;durP1;ratioP1;P2;durP2;ratioP2
47749;SDS011;49810;48.160;10.812;2023-07-24T00:00:37;26.83;;;14.55;;
47749;SDS011;49810;48.160;10.812;2023-07-24T00:03:07;21.77;;;13.68;;
47749;SDS011;49810;48.160;10.812;2023-07-24T00:05:34;26.65;;;14.43;;
47749;SDS011;49810;48.160;10.812;2023-07-24T00:08:03;27.20;;;14.40;;
47749;SDS011;49810;48.160;10.812;2023-07-24T00:10:31;24.38;;;13.70;;
47749;SDS011;49810;48.160;10.812;2023-07-24T00:13:00;24.08;;;14.63;;
47749;SDS011;49810;48.160;10.812;2023-07-24T00:15:29;24.33;;;14.50;;
47749;SDS011;49810;48.160;10.812;2023-07-24T00:17:57;27.55;;;15.43;;
47749;SDS011;49810;48.160;10.812;2023-07-24T00:20:26;25.45;;;14.73;;
47749;SDS011;49810;48.160;10.812;2023-07-24T00:22:54;26.05;;;14.95;;
47749;SDS011;49810;48.160;10.812;2023-07-24T00:25:21;26.02;;;15.20;;
47749;SDS011;49810;48.160;10.812;2023-07-24T00:27:49;25.95;;;15.05;;
47749;SDS011;49810;48.160;10.812;2023-07-24T00:30:19;27.67;;;15.23;;
47749;SDS011;49810;48.160;10.812;2023-07-24T00:32:47;25.67;;;14.52;;
47749;SDS011;49810;48.160;10.812;2023-07-24T00:35:15;23.83;;;14.20;;
47749;SDS011;49810;48.160;10.812;2023-07-24T00:37:43;24.45;;;14.70;;
47749;SDS011;49810;48.160;10.812;2023-07-24T00:40:11;23.40;;;13.77;;
47749;SDS011;49810;48.160;10.812;2023-07-24T00:42:39;24.95;;;14.68;;
47749;SDS011;49810;48.160;10.812;2023-07-24T00:45:07;24.80;;;15.45;;
47749;SDS011;49810;48.160;10.812;2023-07-24T00:47:38;25.77;;;14.52;;
47749;SDS011;49810;48.160;10.812;2023-07-24T00:50:06;27.23;;;14.65;;
47749;SDS011;49810;48.160;10.812;2023-07-24T00:52:35;25.35;;;14.30;;
47749;SDS011;49810;48.160;10.812;2023-07-24T00:55:03;24.65;;;14.10;;
47749;SDS011;49810;48.160;10.812;2023-07-24T00:57:31;22.60;;;14.82;;
47749;SDS011;49810;48.160;10.812;2023-07-24T00:59:59;25.08;;;14.95;;
47749;SDS011;49810;48.160;10.812;2023-07-24T01:02:28;22.98;;;13.65;;
47749;SDS011;49810;48.160;10.812;2023-07-24T01:04:57;21.15;;;14.05;;
47749;SDS011;49810;48.160;10.812;2023-07-24T01:07:25;23.98;;;14.70;;
47749;SDS011;49810;48.160;10.812;2023-07-24T01:09:54;21.38;;;13.52;;
47749;SDS011;49810;48.160;10.812;2023-07-24T01:12:22;21.98;;;12.98;;
47749;SDS011;49810;48.160;10.812;2023-07-24T01:14:55;21.08;;;13.55;;
47749;SDS011;49810;48.160;10.812;2023-07-24T01:17:25;21.38;;;13.38;;
47749;SDS011;49810;48.160;10.812;2023-07-24T01:19:55;23.08;;;13.88;;
47749;SDS011;49810;48.160;10.812;2023-07-24T01:22:30;22.17;;;12.77;;
47749;SDS011;49810;48.160;10.812;2023-07-24T01:25:01;23.83;;;13.67;;
47749;SDS011;49810;48.160;10.812;2023-07-24T01:27:33;25.27;;;14.10;;
47749;SDS011;49810;48.160;10.812;2023-07-24T01:30:01;22.52;;;13.52;;
47749;SDS011;49810;48.160;10.812;2023-07-24T01:32:30;22.50;;;13.45;;
47749;SDS011;49810;48.160;10.812;2023-07-24T01:34:58;24.77;;;14.05;;
47749;SDS011;49810;48.160;10.812;2023-07-24T01:37:26;23.17;;;13.70;;
47749;SDS011;49810;48.160;10.812;2023-07-24T01:39:54;23.73;;;12.68;;
47749;SDS011;49810;48.160;10.812;2023-07-24T01:42:23;23.60;;;13.07;;
47749;SDS011;49810;48.160;10.812;2023-07-24T01:44:53;21.08;;;12.45;;
47749;SDS011;49810;48.160;10.812;2023-07-24T01:47:21;20.73;;;12.10;;
47749;SDS011;49810;48.160;10.812;2023-07-24T01:49:49;20.40;;;12.57;;
47749;SDS011;49810;48.160;10.812;2023-07-24T01:52:17;18.50;;;12.18;;
47749;SDS011;49810;48.160;10.812;2023-07-24T01:54:45;23.15;;;13.82;;
47749;SDS011;49810;48.160;10.812;2023-07-24T01:57:13;22.65;;;13.10;;
47749;SDS011;49810;48.160;10.812;2023-07-24T01:59:41;21.25;;;12.27;;
47749;SDS011;49810;48.160;10.812;2023-07-24T02:02:12;21.17;;;12.77;;
47749;SDS011;49810;48.160;10.812;2023-07-24T02:04:40;22.63;;;12.45;;
47749;SDS011;49810;48.160;10.812;2023-07-24T02:07:08;21.77;;;13.10;;
47749;SDS011;49810;48.160;10.812;2023-07-24T02:09:35;18.23;;;12.45;;
47749;SDS011;49810;48.160;10.812;2023-07-24T02:12:04;21.83;;;12.80;;
47749;SDS011;49810;48.160;10.812;2023-07-24T02:14:33;21.33;;;12.40;;
47749;SDS011;49810;48.160;10.812;2023-07-24T02:17:00;23.08;;;12.38;;
47749;SDS011;49810;48.160;10.812;2023-07-24T02:19:30;21.33;;;12.05;;
47749;SDS011;49810;48.160;10.812;2023-07-24T02:21:58;22.13;;;12.85;;
47749;SDS011;49810;48.160;10.812;2023-07-24T02:24:26;21.63;;;12.50;;
47749;SDS011;49810;48.160;10.812;2023-07-24T02:26:57;20.50;;;12.48;;
47749;SDS011;49810;48.160;10.812;2023-07-24T02:29:25;18.85;;;12.38;;
47749;SDS011;49810;48.160;10.812;2023-07-24T02:31:53;19.17;;;12.10;;
47749;SDS011;49810;48.160;10.812;2023-07-24T02:34:22;22.77;;;11.93;;
47749;SDS011;49810;48.160;10.812;2023-07-24T02:36:54;22.98;;;13.18;;
47749;SDS011;49810;48.160;10.812;2023-07-24T02:39:22;23.17;;;13.20;;
47749;SDS011;49810;48.160;10.812;2023-07-24T02:41:49;20.48;;;13.45;;
47749;SDS011;49810;48.160;10.812;2023-07-24T02:44:18;26.17;;;15.23;;
47749;SDS011;49810;48.160;10.812;2023-07-24T02:46:45;25.63;;;15.73;;
47749;SDS011;49810;48.160;10.812;2023-07-24T02:49:13;25.65;;;16.13;;
47749;SDS011;49810;48.160;10.812;2023-07-24T02:51:41;27.00;;;16.58;;
47749;SDS011;49810;48.160;10.812;2023-07-24T02:54:11;27.98;;;16.35;;
47749;SDS011;49810;48.160;10.812;2023-07-24T02:56:39;27.80;;;15.98;;
47749;SDS011;49810;48.160;10.812;2023-07-24T02:59:07;32.28;;;18.83;;
47749;SDS011;49810;48.160;10.812;2023-07-24T03:01:35;27.80;;;17.92;;
47749;SDS011;49810;48.160;10.812;2023-07-24T03:04:03;29.35;;;18.80;;
47749;SDS011;49810;48.160;10.812;2023-07-24T03:06:32;30.27;;;18.38;;
47749;SDS011;49810;48.160;10.812;2023-07-24T03:09:00;28.73;;;17.27;;
47749;SDS011;49810;48.160;10.812;2023-07-24T03:11:29;26.48;;;17.33;;
47749;SDS011;49810;48.160;10.812;2023-07-24T03:13:57;29.70;;;17.15;;
47749;SDS011;49810;48.160;10.812;2023-07-24T03:16:25;29.50;;;17.80;;
47749;SDS011;49810;48.160;10.812;2023-07-24T03:18:54;30.33;;;19.42;;
47749;SDS011;49810;48.160;10.812;2023-07-24T03:21:21;30.58;;;18.70;;
47749;SDS011;49810;48.160;10.812;2023-07-24T03:23:50;27.45;;;17.45;;
47749;SDS011;49810;48.160;10.812;2023-07-24T03:26:18;30.75;;;18.73;;
47749;SDS011;49810;48.160;10.812;2023-07-24T03:28:47;28.25;;;17.00;;
47749;SDS011;49810;48.160;10.812;2023-07-24T03:31:16;26.33;;;16.88;;
47749;SDS011;49810;48.160;10.812;2023-07-24T03:33:44;26.27;;;18.27;;
47749;SDS011;49810;48.160;10.812;2023-07-24T03:36:12;27.17;;;17.55;;
47749;SDS011;49810;48.160;10.812;2023-07-24T03:38:41;28.88;;;19.10;;
47749;SDS011;49810;48.160;10.812;2023-07-24T03:41:08;30.75;;;19.00;;
47749;SDS011;49810;48.160;10.812;2023-07-24T03:43:36;30.15;;;18.20;;
47749;SDS011;49810;48.160;10.812;2023-07-24T03:46:06;28.08;;;18.50;;
47749;SDS011;49810;48.160;10.812;2023-07-24T03:48:34;28.85;;;18.63;;
47749;SDS011;49810;48.160;10.812;2023-07-24T03:51:03;29.92;;;18.63;;
47749;SDS011;49810;48.160;10.812;2023-07-24T03:53:31;26.10;;;16.67;;
47749;SDS011;49810;48.160;10.812;2023-07-24T03:55:59;27.17;;;16.95;;
47749;SDS011;49810;48.160;10.812;2023-07-24T03:58:27;27.77;;;17.52;;
47749;SDS011;49810;48.160;10.812;2023-07-24T04:00:54;30.33;;;18.52;;
47749;SDS011;49810;48.160;10.812;2023-07-24T04:03:24;30.80;;;17.80;;
47749;SDS011;49810;48.160;10.812;2023-07-24T04:05:52;31.58;;;19.10;;
47749;SDS011;49810;48.160;10.812;2023-07-24T04:08:19;29.30;;;17.83;;
47749;SDS011;49810;48.160;10.812;2023-07-24T04:10:47;29.38;;;18.38;;
47749;SDS011;49810;48.160;10.812;2023-07-24T04:13:15;25.83;;;17.92;;
47749;SDS011;49810;48.160;10.812;2023-07-24T04:15:43;31.05;;;19.42;;
47749;SDS011;49810;48.160;10.812;2023-07-24T04:18:11;29.55;;;18.48;;
47749;SDS011;49810;48.160;10.812;2023-07-24T04:20:40;25.77;;;16.35;;
47749;SDS011;49810;48.160;10.812;2023-07-24T04:23:08;29.23;;;18.77;;
47749;SDS011;49810;48.160;10.812;2023-07-24T04:25:36;36.72;;;18.95;;
47749;SDS011;49810;48.160;10.812;2023-07-24T04:28:04;29.33;;;17.42;;
47749;SDS011;49810;48.160;10.812;2023-07-24T04:30:32;23.20;;;15.45;;
47749;SDS011;49810;48.160;10.812;2023-07-24T04:33:00;28.13;;;16.05;;
47749;SDS011;49810;48.160;10.812;2023-07-24T04:35:28;32.15;;;16.85;;
47749;SDS011;49810;48.160;10.812;2023-07-24T04:37:57;28.67;;;16.77;;
47749;SDS011;49810;48.160;10.812;2023-07-24T04:40:26;32.30;;;18.30;;
47749;SDS011;49810;48.160;10.812;2023-07-24T04:42:54;31.25;;;17.42;;
47749;SDS011;49810;48.160;10.812;2023-07-24T04:45:22;25.88;;;17.15;;
47749;SDS011;49810;48.160;10.812;2023-07-24T04:47:50;28.15;;;16.38;;
47749;SDS011;49810;48.160;10.812;2023-07-24T04:50:18;29.20;;;18.65;;
47749;SDS011;49810;48.160;10.812;2023-07-24T04:52:46;34.42;;;22.02;;
47749;SDS011;49810;48.160;10.812;2023-07-24T04:55:15;26.23;;;17.38;;
47749;SDS011;49810;48.160;10.812;2023-07-24T04:57:43;27.38;;;17.35;;
47749;SDS011;49810;48.160;10.812;2023-07-24T05:00:11;33.08;;;19.17;;
47749;SDS011;49810;48.160;10.812;2023-07-24T05:02:39;26.38;;;17.42;;
47749;SDS011;49810;48.160;10.812;2023-07-24T05:05:07;25.58;;;17.60;;
47749;SDS011;49810;48.160;10.812;2023-07-24T05:07:35;28.13;;;17.10;;
47749;SDS011;49810;48.160;10.812;2023-07-24T05:10:04;30.13;;;16.52;;
47749;SDS011;49810;48.160;10.812;2023-07-24T05:12:33;30.30;;;16.95;;
47749;SDS011;49810;48.160;10.812;2023-07-24T05:15:01;24.60;;;16.77;;
47749;SDS011;49810;48.160;10.812;2023-07-24T05:17:30;23.35;;;16.02;;
47749;SDS011;49810;48.160;10.812;2023-07-24T05:19:58;25.52;;;15.50;;
47749;SDS011;49810;48.160;10.812;2023-07-24T05:22:25;25.67;;;15.52;;
47749;SDS011;49810;48.160;10.812;2023-07-24T05:24:53;25.45;;;15.50;;
47749;SDS011;49810;48.160;10.812;2023-07-24T05:27:21;24.35;;;15.60;;
47749;SDS011;49810;48.160;10.812;2023-07-24T05:29:51;22.42;;;14.93;;
47749;SDS011;49810;48.160;10.812;2023-07-24T05:32:18;23.15;;;14.10;;
47749;SDS011;49810;48.160;10.812;2023-07-24T05:34:46;24.35;;;13.93;;
47749;SDS011;49810;48.160;10.812;2023-07-24T05:37:14;22.15;;;14.43;;
47749;SDS011;49810;48.160;10.812;2023-07-24T05:39:42;21.98;;;14.18;;
47749;SDS011;49810;48.160;10.812;2023-07-24T05:42:10;22.85;;;13.95;;
47749;SDS011;49810;48.160;10.812;2023-07-24T05:44:38;23.00;;;13.55;;
47749;SDS011;49810;48.160;10.812;2023-07-24T05:47:07;21.10;;;13.02;;
47749;SDS011;49810;48.160;10.812;2023-07-24T05:49:36;19.23;;;13.07;;
47749;SDS011;49810;48.160;10.812;2023-07-24T05:52:08;20.58;;;13.05;;
47749;SDS011;49810;48.160;10.812;2023-07-24T05:54:36;19.63;;;13.50;;
47749;SDS011;49810;48.160;10.812;2023-07-24T05:57:04;22.23;;;14.65;;
47749;SDS011;49810;48.160;10.812;2023-07-24T05:59:31;21.20;;;12.75;;
47749;SDS011;49810;48.160;10.812;2023-07-24T06:02:01;22.13;;;13.27;;
47749;SDS011;49810;48.160;10.812;2023-07-24T06:04:30;20.20;;;13.10;;
47749;SDS011;49810;48.160;10.812;2023-07-24T06:06:58;17.50;;;12.18;;
47749;SDS011;49810;48.160;10.812;2023-07-24T06:09:26;19.85;;;13.00;;
47749;SDS011;49810;48.160;10.812;2023-07-24T06:11:55;21.05;;;12.18;;
47749;SDS011;49810;48.160;10.812;2023-07-24T06:14:22;18.77;;;12.45;;
47749;SDS011;49810;48.160;10.812;2023-07-24T06:16:50;23.67;;;13.30;;
47749;SDS011;49810;48.160;10.812;2023-07-24T06:19:18;20.98;;;13.25;;
47749;SDS011;49810;48.160;10.812;2023-07-24T06:21:48;18.23;;;11.63;;
47749;SDS011;49810;48.160;10.812;2023-07-24T06:24:17;20.85;;;12.95;;
47749;SDS011;49810;48.160;10.812;2023-07-24T06:26:45;18.27;;;12.57;;
47749;SDS011;49810;48.160;10.812;2023-07-24T06:29:13;20.33;;;12.85;;
47749;SDS011;49810;48.160;10.812;2023-07-24T06:31:41;17.98;;;11.90;;
47749;SDS011;49810;48.160;10.812;2023-07-24T06:34:09;19.77;;;12.45;;
47749;SDS011;49810;48.160;10.812;2023-07-24T06:36:38;20.35;;;12.98;;
47749;SDS011;49810;48.160;10.812;2023-07-24T06:39:07;20.75;;;12.63;;
47749;SDS011;49810;48.160;10.812;2023-07-24T06:41:35;22.05;;;13.10;;
47749;SDS011;49810;48.160;10.812;2023-07-24T06:44:03;19.17;;;12.18;;
47749;SDS011;49810;48.160;10.812;2023-07-24T06:46:33;23.17;;;12.75;;
47749;SDS011;49810;48.160;10.812;2023-07-24T06:49:02;22.10;;;12.93;;
47749;SDS011;49810;48.160;10.812;2023-07-24T06:51:30;24.10;;;13.30;;
47749;SDS011;49810;48.160;10.812;2023-07-24T06:53:57;22.55;;;13.30;;
47749;SDS011;49810;48.160;10.812;2023-07-24T06:56:27;20.73;;;12.10;;
47749;SDS011;49810;48.160;10.812;2023-07-24T06:58:55;26.10;;;13.75;;
47749;SDS011;49810;48.160;10.812;2023-07-24T07:01:23;28.88;;;15.23;;
47749;SDS011;49810;48.160;10.812;2023-07-24T07:03:51;26.20;;;14.32;;
47749;SDS011;49810;48.160;10.812;2023-07-24T07:06:19;23.35;;;14.48;;
47749;SDS011;49810;48.160;10.812;2023-07-24T07:08:51;25.50;;;14.70;;
47749;SDS011;49810;48.160;10.812;2023-07-24T07:11:18;25.58;;;13.98;;
47749;SDS011;49810;48.160;10.812;2023-07-24T07:13:48;21.08;;;12.70;;
47749;SDS011;49810;48.160;10.812;2023-07-24T07:16:16;20.38;;;12.23;;
47749;SDS011;49810;48.160;10.812;2023-07-24T07:18:45;19.15;;;11.45;;
47749;SDS011;49810;48.160;10.812;2023-07-24T07:21:13;20.88;;;12.13;;
47749;SDS011;49810;48.160;10.812;2023-07-24T07:23:41;18.80;;;11.43;;
47749;SDS011;49810;48.160;10.812;2023-07-24T07:26:12;19.10;;;12.07;;
47749;SDS011;49810;48.160;10.812;2023-07-24T07:28:40;21.73;;;12.27;;
47749;SDS011;49810;48.160;10.812;2023-07-24T07:31:10;19.95;;;12.40;;
47749;SDS011;49810;48.160;10.812;2023-07-24T07:33:38;19.25;;;12.82;;
47749;SDS011;49810;48.160;10.812;2023-07-24T07:36:06;20.33;;;13.43;;
47749;SDS011;49810;48.160;10.812;2023-07-24T07:38:34;21.00;;;13.07;;
47749;SDS011;49810;48.160;10.812;2023-07-24T07:41:03;20.95;;;12.43;;
47749;SDS011;49810;48.160;10.812;2023-07-24T07:43:32;20.75;;;13.55;;
47749;SDS011;49810;48.160;10.812;2023-07-24T07:46:01;21.10;;;11.70;;
47749;SDS011;49810;48.160;10.812;2023-07-24T07:48:31;19.13;;;11.90;;
47749;SDS011;49810;48.160;10.812;2023-07-24T07:51:02;22.60;;;13.00;;
47749;SDS011;49810;48.160;10.812;2023-07-24T07:53:31;20.75;;;12.48;;
47749;SDS011;49810;48.160;10.812;2023-07-24T07:56:00;19.88;;;12.13;;
47749;SDS011;49810;48.160;10.812;2023-07-24T07:58:29;21.85;;;13.35;;
47749;SDS011;49810;48.160;10.812;2023-07-24T08:00:57;18.25;;;12.02;;
47749;SDS011;49810;48.160;10.812;2023-07-24T08:03:27;20.13;;;12.48;;
47749;SDS011;49810;48.160;10.812;2023-07-24T08:05:57;21.30;;;13.50;;
47749;SDS011;49810;48.160;10.812;2023-07-24T08:08:25;22.80;;;13.07;;
47749;SDS011;49810;48.160;10.812;2023-07-24T08:10:57;20.77;;;13.02;;
47749;SDS011;49810;48.160;10.812;2023-07-24T08:13:25;21.55;;;13.20;;
47749;SDS011;49810;48.160;10.812;2023-07-24T08:15:53;17.45;;;11.85;;
47749;SDS011;49810;48.160;10.812;2023-07-24T08:18:22;20.25;;;12.43;;
47749;SDS011;49810;48.160;10.812;2023-07-24T08:20:50;19.73;;;11.40;;
47749;SDS011;49810;48.160;10.812;2023-07-24T08:23:20;19.30;;;11.52;;
47749;SDS011;49810;48.160;10.812;2023-07-24T08:25:51;20.15;;;11.05;;
47749;SDS011;49810;48.160;10.812;2023-07-24T08:28:20;15.98;;;10.00;;
47749;SDS011;49810;48.160;10.812;2023-07-24T08:30:55;17.23;;;10.45;;
47749;SDS011;49810;48.160;10.812;2023-07-24T08:33:23;19.17;;;9.88;;
47749;SDS011;49810;48.160;10.812;2023-07-24T08:35:58;15.07;;;10.10;;
47749;SDS011;49810;48.160;10.812;2023-07-24T08:38:28;13.95;;;9.18;;
47749;SDS011;49810;48.160;10.812;2023-07-24T08:41:00;16.17;;;9.43;;
47749;SDS011;49810;48.160;10.812;2023-07-24T08:43:29;15.23;;;9.32;;
47749;SDS011;49810;48.160;10.812;2023-07-24T08:45:57;13.10;;;8.55;;
47749;SDS011;49810;48.160;10.812;2023-07-24T08:48:26;14.27;;;9.90;;
47749;SDS011;49810;48.160;10.812;2023-07-24T08:50:54;15.15;;;11.10;;
47749;SDS011;49810;48.160;10.812;2023-07-24T08:53:22;11.50;;;6.95;;
47749;SDS011;49810;48.160;10.812;2023-07-24T08:55:52;13.77;;;6.75;;
47749;SDS011;49810;48.160;10.812;2023-07-24T08:58:21;9.77;;;6.13;;
47749;SDS011;49810;48.160;10.812;2023-07-24T09:00:49;10.68;;;6.63;;
47749;SDS011;49810;48.160;10.812;2023-07-24T09:03:18;11.32;;;6.30;;
47749;SDS011;49810;48.160;10.812;2023-07-24T09:05:46;9.65;;;5.95;;
47749;SDS011;49810;48.160;10.812;2023-07-24T09:08:14;11.13;;;5.47;;
47749;SDS011;49810;48.160;10.812;2023-07-24T09:10:43;8.95;;;4.97;;
47749;SDS011;49810;48.160;10.812;2023-07-24T09:13:13;8.40;;;5.07;;
47749;SDS011;49810;48.160;10.812;2023-07-24T09:15:41;7.43;;;5.18;;
47749;SDS011;49810;48.160;10.812;2023-07-24T09:18:09;10.38;;;5.55;;
47749;SDS011;49810;48.160;10.812;2023-07-24T09:20:38;7.63;;;4.45;;
47749;SDS011;49810;48.160;10.812;2023-07-24T09:23:09;7.47;;;4.47;;
47749;SDS011;49810;48.160;10.812;2023-07-24T09:25:43;8.65;;;5.07;;
47749;SDS011;49810;48.160;10.812;2023-07-24T09:28:13;8.60;;;5.05;;
47749;SDS011;49810;48.160;10.812;2023-07-24T09:30:42;9.20;;;5.15;;
47749;SDS011;49810;48.160;10.812;2023-07-24T09:33:18;8.10;;;5.00;;
47749;SDS011;49810;48.160;10.812;2023-07-24T09:35:56;9.82;;;4.80;;
47749;SDS011;49810;48.160;10.812;2023-07-24T09:38:24;7.38;;;4.70;;
47749;SDS011;49810;48.160;10.812;2023-07-24T09:40:53;11.95;;;5.45;;
47749;SDS011;49810;48.160;10.812;2023-07-24T09:43:24;8.48;;;5.47;;
47749;SDS011;49810;48.160;10.812;2023-07-24T09:46:06;10.30;;;4.68;;
47749;SDS011;49810;48.160;10.812;2023-07-24T09:48:35;7.38;;;4.60;;
47749;SDS011;49810;48.160;10.812;2023-07-24T09:51:09;7.88;;;4.20;;
47749;SDS011;49810;48.160;10.812;2023-07-24T09:53:39;7.35;;;4.60;;
47749;SDS011;49810;48.160;10.812;2023-07-24T09:56:11;6.95;;;4.43;;
47749;SDS011;49810;48.160;10.812;2023-07-24T09:58:40;7.53;;;4.22;;
47749;SDS011;49810;48.160;10.812;2023-07-24T10:01:09;7.55;;;4.18;;
47749;SDS011;49810;48.160;10.812;2023-07-24T10:03:38;7.90;;;4.70;;
47749;SDS011;49810;48.160;10.812;2023-07-24T10:06:09;8.50;;;4.45;;
47749;SDS011;49810;48.160;10.812;2023-07-24T10:08:40;8.00;;;4.55;;
47749;SDS011;49810;48.160;10.812;2023-07-24T10:11:08;7.22;;;4.50;;
47749;SDS011;49810;48.160;10.812;2023-07-24T10:13:39;10.90;;;4.15;;
47749;SDS011;49810;48.160;10.812;2023-07-24T10:16:09;6.75;;;3.90;;
47749;SDS011;49810;48.160;10.812;2023-07-24T10:18:42;7.32;;;4.10;;
47749;SDS011;49810;48.160;10.812;2023-07-24T10:21:10;8.93;;;4.07;;
47749;SDS011;49810;48.160;10.812;2023-07-24T10:23:41;11.57;;;3.72;;
47749;SDS011;49810;48.160;10.812;2023-07-24T10:26:09;6.13;;;3.72;;
47749;SDS011;49810;48.160;10.812;2023-07-24T10:28:38;7.97;;;4.50;;
47749;SDS011;49810;48.160;10.812;2023-07-24T10:31:20;6.90;;;4.53;;
47749;SDS011;49810;48.160;10.812;2023-07-24T10:33:51;7.72;;;3.83;;
47749;SDS011;49810;48.160;10.812;2023-07-24T10:36:20;6.65;;;4.40;;
47749;SDS011;49810;48.160;10.812;2023-07-24T10:38:52;9.60;;;4.80;;
47749;SDS011;49810;48.160;10.812;2023-07-24T10:41:20;7.38;;;4.70;;
47749;SDS011;49810;48.160;10.812;2023-07-24T10:43:51;7.85;;;4.72;;
47749;SDS011;49810;48.160;10.812;2023-07-24T10:46:23;8.90;;;5.10;;
47749;SDS011;49810;48.160;10.812;2023-07-24T10:48:51;7.82;;;4.68;;
47749;SDS011;49810;48.160;10.812;2023-07-24T10:51:20;9.40;;;4.85;;
47749;SDS011;49810;48.160;10.812;2023-07-24T10:53:49;8.82;;;4.82;;
47749;SDS011;49810;48.160;10.812;2023-07-24T10:56:17;6.80;;;4.53;;
47749;SDS011;49810;48.160;10.812;2023-07-24T10:58:45;8.13;;;4.80;;
47749;SDS011;49810;48.160;10.812;2023-07-24T11:01:13;7.70;;;5.05;;
47749;SDS011;49810;48.160;10.812;2023-07-24T11:03:44;6.88;;;4.55;;
47749;SDS011;49810;48.160;10.812;2023-07-24T11:06:12;8.45;;;5.40;;
47749;SDS011;49810;48.160;10.812;2023-07-24T11:08:41;7.63;;;4.38;;
47749;SDS011;49810;48.160;10.812;2023-07-24T11:11:09;8.73;;;4.70;;
47749;SDS011;49810;48.160;10.812;2023-07-24T11:13:38;6.47;;;4.18;;
47749;SDS011;49810;48.160;10.812;2023-07-24T11:16:07;8.82;;;4.95;;
47749;SDS011;49810;48.160;10.812;2023-07-24T11:18:45;6.75;;;4.57;;
47749;SDS011;49810;48.160;10.812;2023-07-24T11:21:20;7.88;;;4.53;;
47749;SDS011;49810;48.160;10.812;2023-07-24T11:23:50;8.55;;;4.45;;
47749;SDS011;49810;48.160;10.812;2023-07-24T11:26:19;7.97;;;4.68;;
47749;SDS011;49810;48.160;10.812;2023-07-24T11:28:48;7.53;;;4.97;;
47749;SDS011;49810;48.160;10.812;2023-07-24T11:31:17;8.05;;;5.22;;
47749;SDS011;49810;48.160;10.812;2023-07-24T11:33:49;8.20;;;4.93;;
47749;SDS011;49810;48.160;10.812;2023-07-24T11:36:17;8.55;;;5.88;;
47749;SDS011;49810;48.160;10.812;2023-07-24T11:38:45;9.95;;;5.60;;
47749;SDS011;49810;48.160;10.812;2023-07-24T11:41:13;9.07;;;6.00;;
47749;SDS011;49810;48.160;10.812;2023-07-24T11:43:45;8.70;;;5.25;;
47749;SDS011;49810;48.160;10.812;2023-07-24T11:46:21;9.00;;;5.82;;
47749;SDS011;49810;48.160;10.812;2023-07-24T11:48:51;10.50;;;6.10;;
47749;SDS011;49810;48.160;10.812;2023-07-24T11:51:20;17.15;;;6.97;;
47749;SDS011;49810;48.160;10.812;2023-07-24T11:53:49;15.50;;;7.70;;
47749;SDS011;49810;48.160;10.812;2023-07-24T11:56:17;11.68;;;8.35;;
47749;SDS011;49810;48.160;10.812;2023-07-24T11:58:47;16.40;;;9.00;;
47749;SDS011;49810;48.160;10.812;2023-07-24T12:01:15;13.77;;;9.30;;
47749;SDS011;49810;48.160;10.812;2023-07-24T12:03:45;15.40;;;8.75;;
47749;SDS011;49810;48.160;10.812;2023-07-24T12:06:16;15.57;;;10.40;;
47749;SDS011;49810;48.160;10.812;2023-07-24T12:08:44;15.10;;;9.82;;
47749;SDS011;49810;48.160;10.812;2023-07-24T12:11:15;16.80;;;9.60;;
47749;SDS011;49810;48.160;10.812;2023-07-24T12:13:45;15.77;;;9.48;;
47749;SDS011;49810;48.160;10.812;2023-07-24T12:16:13;14.65;;;8.75;;
47749;SDS011;49810;48.160;10.812;2023-07-24T12:18:42;12.48;;;7.90;;
47749;SDS011;49810;48.160;10.812;2023-07-24T12:21:10;13.05;;;8.10;;
47749;SDS011;49810;48.160;10.812;2023-07-24T12:23:39;14.95;;;8.02;;
47749;SDS011;49810;48.160;10.812;2023-07-24T12:26:07;13.68;;;7.78;;
47749;SDS011;49810;48.160;10.812;2023-07-24T12:28:35;10.73;;;7.07;;
47749;SDS011;49810;48.160;10.812;2023-07-24T12:31:04;11.10;;;6.63;;
47749;SDS011;49810;48.160;10.812;2023-07-24T12:33:33;12.40;;;7.03;;
47749;SDS011;49810;48.160;10.812;2023-07-24T12:36:02;15.52;;;7.38;;
47749;SDS011;49810;48.160;10.812;2023-07-24T12:38:30;11.57;;;7.30;;
47749;SDS011;49810;48.160;10.812;2023-07-24T12:40:59;13.25;;;6.88;;
47749;SDS011;49810;48.160;10.812;2023-07-24T12:43:29;15.80;;;7.05;;
47749;SDS011;49810;48.160;10.812;2023-07-24T12:45:57;14.52;;;6.90;;
47749;SDS011;49810;48.160;10.812;2023-07-24T12:48:24;13.27;;;7.43;;
47749;SDS011;49810;48.160;10.812;2023-07-24T12:50:52;21.25;;;7.95;;
47749;SDS011;49810;48.160;10.812;2023-07-24T12:53:21;12.80;;;7.45;;
47749;SDS011;49810;48.160;10.812;2023-07-24T12:55:54;12.38;;;7.13;;
47749;SDS011;49810;48.160;10.812;2023-07-24T12:58:26;12.20;;;6.57;;
47749;SDS011;49810;48.160;10.812;2023-07-24T13:00:53;10.93;;;7.00;;
47749;SDS011;49810;48.160;10.812;2023-07-24T13:03:22;13.18;;;7.00;;
47749;SDS011;49810;48.160;10.812;2023-07-24T13:05:50;11.63;;;7.40;;
47749;SDS011;49810;48.160;10.812;2023-07-24T13:08:18;10.88;;;6.28;;
47749;SDS011;49810;48.160;10.812;2023-07-24T13:10:49;11.07;;;6.70;;
47749;SDS011;49810;48.160;10.812;2023-07-24T13:13:17;9.43;;;6.18;;
47749;SDS011;49810;48.160;10.812;2023-07-24T13:15:46;8.82;;;5.53;;
47749;SDS011;49810;48.160;10.812;2023-07-24T13:18:16;8.15;;;5.60;;
47749;SDS011;49810;48.160;10.812;2023-07-24T13:20:56;11.57;;;5.78;;
47749;SDS011;49810;48.160;10.812;2023-07-24T13:23:24;10.65;;;6.03;;
47749;SDS011;49810;48.160;10.812;2023-07-24T13:25:52;9.00;;;5.85;;
47749;SDS011;49810;48.160;10.812;2023-07-24T13:28:20;9.27;;;5.32;;
47749;SDS011;49810;48.160;10.812;2023-07-24T13:30:49;9.30;;;5.68;;
47749;SDS011;49810;48.160;10.812;2023-07-24T13:33:17;9.52;;;5.95;;
47749;SDS011;49810;48.160;10.812;2023-07-24T13:35:46;8.55;;;5.18;;
47749;SDS011;49810;48.160;10.812;2023-07-24T13:38:15;8.18;;;4.82;;
47749;SDS011;49810;48.160;10.812;2023-07-24T13:40:48;7.60;;;4.97;;
47749;SDS011;49810;48.160;10.812;2023-07-24T13:43:16;8.10;;;5.30;;
47749;SDS011;49810;48.160;10.812;2023-07-24T13:45:45;8.68;;;5.70;;
47749;SDS011;49810;48.160;10.812;2023-07-24T13:48:14;9.95;;;5.43;;
47749;SDS011;49810;48.160;10.812;2023-07-24T13:50:42;9.10;;;5.00;;
47749;SDS011;49810;48.160;10.812;2023-07-24T13:53:11;10.10;;;5.43;;
47749;SDS011;49810;48.160;10.812;2023-07-24T13:55:39;9.27;;;5.18;;
47749;SDS011;49810;48.160;10.812;2023-07-24T13:58:08;10.48;;;5.10;;
47749;SDS011;49810;48.160;10.812;2023-07-24T14:00:38;8.60;;;5.35;;
47749;SDS011;49810;48.160;10.812;2023-07-24T14:03:09;7.35;;;4.85;;
47749;SDS011;49810;48.160;10.812;2023-07-24T14:05:39;7.40;;;5.00;;
47749;SDS011;49810;48.160;10.812;2023-07-24T14:08:08;6.55;;;4.53;;
47749;SDS011;49810;48.160;10.812;2023-07-24T14:10:37;7.07;;;4.18;;
47749;SDS011;49810;48.160;10.812;2023-07-24T14:13:06;8.13;;;4.38;;
47749;SDS011;49810;48.160;10.812;2023-07-24T14:15:35;6.03;;;4.22;;
47749;SDS011;49810;48.160;10.812;2023-07-24T14:18:03;5.68;;;3.95;;
47749;SDS011;49810;48.160;10.812;2023-07-24T14:20:34;5.85;;;3.63;;
47749;SDS011;49810;48.160;10.812;2023-07-24T14:23:06;5.70;;;3.42;;
47749;SDS011;49810;48.160;10.812;2023-07-24T14:25:35;4.45;;;2.97;;